sensor_id;sensor_type;location;lat;lon;timestamp;pressure;altitude;pressure_sealevel;temperature;humidity
56950;BME280;74437;50.080;19.924;2024-01-15T00:01:05;97290.09;;;-0.70;75.82
56950;BME280;74437;50.080;19.924;2024-01-15T00:03:30;97273.94;;;-0.76;76.63
56950;BME280;74437;50.080;19.924;2024-01-15T00:05:55;97286.19;;;-0.68;75.08
56950;BME280;74437;50.080;19.924;2024-01-15T00:08:20;97261.31;;;-0.80;75.48
56950;BME280;74437;50.080;19.924;2024-01-15T00:10:46;97271.00;;;-0.67;76.05
56950;BME280;74437;50.080;19.924;2024-01-15T00:13:11;97237.19;;;-0.85;74.99
56950;BME280;74437;50.080;19.924;2024-01-15T00:15:36;97271.84;;;-0.67;75.80
56950;BME280;74437;50.080;19.924;2024-01-15T00:18:02;97248.38;;;-0.77;76.24
56950;BME280;74437;50.080;19.924;2024-01-15T00:20:27;97250.16;;;-0.70;75.14
56950;BME280;74437;50.080;19.924;2024-01-15T00:22:52;97240.53;;;-0.71;75.15
56950;BME280;74437;50.080;19.924;2024-01-15T00:25:18;97214.13;;;-0.92;75.76
56950;BME280;74437;50.080;19.924;2024-01-15T00:27:43;97244.41;;;-0.67;75.75
56950;BME280;74437;50.080;19.924;2024-01-15T00:30:09;97247.44;;;-0.64;74.21
56950;BME280;74437;50.080;19.924;2024-01-15T00:32:34;97250.56;;;-0.67;75.60
56950;BME280;74437;50.080;19.924;2024-01-15T00:34:59;97248.91;;;-0.68;75.75
56950;BME280;74437;50.080;19.924;2024-01-15T00:37:25;97243.59;;;-0.68;75.41
56950;BME280;74437;50.080;19.924;2024-01-15T00:39:50;97237.09;;;-0.72;74.68
56950;BME280;74437;50.080;19.924;2024-01-15T00:42:15;97239.06;;;-0.67;75.15
56950;BME280;74437;50.080;19.924;2024-01-15T00:44:42;97216.44;;;-0.77;77.03
56950;BME280;74437;50.080;19.924;2024-01-15T00:47:07;97215.19;;;-0.74;75.84
56950;BME280;74437;50.080;19.924;2024-01-15T00:49:32;97203.94;;;-0.76;74.88
56950;BME280;74437;50.080;19.924;2024-01-15T00:51:57;97215.34;;;-0.69;74.02
56950;BME280;74437;50.080;19.924;2024-01-15T00:54:23;97230.06;;;-0.66;74.03
56950;BME280;74437;50.080;19.924;2024-01-15T00:56:48;97220.44;;;-0.67;75.54
56950;BME280;74437;50.080;19.924;2024-01-15T00:59:13;97209.28;;;-0.76;75.03
56950;BME280;74437;50.080;19.924;2024-01-15T01:01:40;97221.03;;;-0.65;74.78
56950;BME280;74437;50.080;19.924;2024-01-15T01:04:08;97217.94;;;-0.62;73.79
56950;BME280;74437;50.080;19.924;2024-01-15T01:06:34;97207.13;;;-0.67;73.77
56950;BME280;74437;50.080;19.924;2024-01-15T01:08:59;97215.19;;;-0.55;73.09
56950;BME280;74437;50.080;19.924;2024-01-15T01:11:24;97217.66;;;-0.54;72.17
56950;BME280;74437;50.080;19.924;2024-01-15T01:13:49;97211.94;;;-0.57;76.40
56950;BME280;74437;50.080;19.924;2024-01-15T01:16:15;97215.63;;;-0.58;76.20
56950;BME280;74437;50.080;19.924;2024-01-15T01:18:40;97212.97;;;-0.58;75.41
56950;BME280;74437;50.080;19.924;2024-01-15T01:21:05;97208.47;;;-0.58;76.03
56950;BME280;74437;50.080;19.924;2024-01-15T01:23:30;97200.94;;;-0.61;78.59
56950;BME280;74437;50.080;19.924;2024-01-15T01:25:56;97195.25;;;-0.65;77.30
56950;BME280;74437;50.080;19.924;2024-01-15T01:28:21;97188.72;;;-0.69;75.55
56950;BME280;74437;50.080;19.924;2024-01-15T01:30:46;97170.81;;;-0.80;78.52
56950;BME280;74437;50.080;19.924;2024-01-15T01:33:12;97185.69;;;-0.72;78.29
56950;BME280;74437;50.080;19.924;2024-01-15T01:35:37;97111.25;;;-1.16;75.81
56950;BME280;74437;50.080;19.924;2024-01-15T01:38:02;97165.06;;;-0.77;75.01
56950;BME280;74437;50.080;19.924;2024-01-15T01:40:28;97171.72;;;-0.68;74.04
56950;BME280;74437;50.080;19.924;2024-01-15T01:42:53;97142.00;;;-0.83;73.59
56950;BME280;74437;50.080;19.924;2024-01-15T01:45:18;97161.78;;;-0.61;72.18
56950;BME280;74437;50.080;19.924;2024-01-15T01:47:44;97149.06;;;-0.58;72.51
56950;BME280;74437;50.080;19.924;2024-01-15T01:50:09;97163.94;;;-0.51;71.74
56950;BME280;74437;50.080;19.924;2024-01-15T01:52:35;97154.84;;;-0.43;71.16
56950;BME280;74437;50.080;19.924;2024-01-15T01:55:02;97145.38;;;-0.39;70.42
56950;BME280;74437;50.080;19.924;2024-01-15T01:57:28;97122.16;;;-0.50;70.64
56950;BME280;74437;50.080;19.924;2024-01-15T01:59:54;97141.81;;;-0.33;70.52
56950;BME280;74437;50.080;19.924;2024-01-15T02:02:20;97126.19;;;-0.29;70.42
56950;BME280;74437;50.080;19.924;2024-01-15T02:04:47;97114.59;;;-0.35;70.03
56950;BME280;74437;50.080;19.924;2024-01-15T02:07:13;97110.88;;;-0.34;69.99
56950;BME280;74437;50.080;19.924;2024-01-15T02:09:38;97128.63;;;-0.27;69.87
56950;BME280;74437;50.080;19.924;2024-01-15T02:12:04;97098.72;;;-0.41;69.42
56950;BME280;74437;50.080;19.924;2024-01-15T02:14:29;97114.28;;;-0.26;70.15
56950;BME280;74437;50.080;19.924;2024-01-15T02:16:55;97118.56;;;-0.25;70.44
56950;BME280;74437;50.080;19.924;2024-01-15T02:19:20;97119.38;;;-0.25;70.61
56950;BME280;74437;50.080;19.924;2024-01-15T02:21:45;97117.97;;;-0.27;70.15
56950;BME280;74437;50.080;19.924;2024-01-15T02:24:11;97098.50;;;-0.28;69.46
56950;BME280;74437;50.080;19.924;2024-01-15T02:26:36;97091.19;;;-0.33;69.96
56950;BME280;74437;50.080;19.924;2024-01-15T02:29:04;97108.81;;;-0.32;70.69
56950;BME280;74437;50.080;19.924;2024-01-15T02:31:29;97101.03;;;-0.33;70.54
56950;BME280;74437;50.080;19.924;2024-01-15T02:33:55;97104.97;;;-0.36;70.62
56950;BME280;74437;50.080;19.924;2024-01-15T02:36:20;97102.66;;;-0.32;69.74
56950;BME280;74437;50.080;19.924;2024-01-15T02:38:45;97100.22;;;-0.34;70.77
56950;BME280;74437;50.080;19.924;2024-01-15T02:41:11;97086.69;;;-0.32;70.29
56950;BME280;74437;50.080;19.924;2024-01-15T02:43:39;97066.38;;;-0.45;70.32
56950;BME280;74437;50.080;19.924;2024-01-15T02:46:04;97034.28;;;-0.50;69.64
56950;BME280;74437;50.080;19.924;2024-01-15T02:48:29;97046.25;;;-0.41;70.31
56950;BME280;74437;50.080;19.924;2024-01-15T02:50:54;97057.63;;;-0.34;70.41
56950;BME280;74437;50.080;19.924;2024-01-15T02:53:20;97065.81;;;-0.35;70.59
56950;BME280;74437;50.080;19.924;2024-01-15T02:55:45;97066.75;;;-0.41;71.08
56950;BME280;74437;50.080;19.924;2024-01-15T02:58:10;97058.97;;;-0.43;70.75
56950;BME280;74437;50.080;19.924;2024-01-15T03:00:36;97052.91;;;-0.50;71.55
56950;BME280;74437;50.080;19.924;2024-01-15T03:03:01;97055.38;;;-0.49;71.99
56950;BME280;74437;50.080;19.924;2024-01-15T03:05:26;97026.81;;;-0.72;71.85
56950;BME280;74437;50.080;19.924;2024-01-15T03:07:51;97052.78;;;-0.55;72.28
56950;BME280;74437;50.080;19.924;2024-01-15T03:10:17;97026.22;;;-0.74;72.76
56950;BME280;74437;50.080;19.924;2024-01-15T03:12:42;97055.88;;;-0.58;72.19
56950;BME280;74437;50.080;19.924;2024-01-15T03:15:07;97033.44;;;-0.63;72.13
56950;BME280;74437;50.080;19.924;2024-01-15T03:17:33;97053.72;;;-0.62;74.94
56950;BME280;74437;50.080;19.924;2024-01-15T03:19:58;97047.22;;;-0.66;71.48
56950;BME280;74437;50.080;19.924;2024-01-15T03:22:23;97037.31;;;-0.77;74.26
56950;BME280;74437;50.080;19.924;2024-01-15T03:24:48;97037.91;;;-0.75;73.87
56950;BME280;74437;50.080;19.924;2024-01-15T03:27:14;96982.69;;;-1.10;73.42
56950;BME280;74437;50.080;19.924;2024-01-15T03:29:41;97030.97;;;-0.76;72.78
56950;BME280;74437;50.080;19.924;2024-01-15T03:32:06;97032.78;;;-0.77;71.98
56950;BME280;74437;50.080;19.924;2024-01-15T03:34:32;96987.91;;;-1.03;71.40
56950;BME280;74437;50.080;19.924;2024-01-15T03:36:57;97030.97;;;-0.76;71.96
56950;BME280;74437;50.080;19.924;2024-01-15T03:39:23;96975.78;;;-0.99;70.21
56950;BME280;74437;50.080;19.924;2024-01-15T03:41:49;97018.72;;;-0.65;69.84
56950;BME280;74437;50.080;19.924;2024-01-15T03:44:14;97018.13;;;-0.67;70.26
56950;BME280;74437;50.080;19.924;2024-01-15T03:46:39;97010.59;;;-0.70;71.00
56950;BME280;74437;50.080;19.924;2024-01-15T03:49:04;97014.81;;;-0.63;69.36
56950;BME280;74437;50.080;19.924;2024-01-15T03:51:30;97009.50;;;-0.63;69.16
56950;BME280;74437;50.080;19.924;2024-01-15T03:53:55;96999.41;;;-0.61;68.52
56950;BME280;74437;50.080;19.924;2024-01-15T03:56:20;97003.22;;;-0.56;68.54
56950;BME280;74437;50.080;19.924;2024-01-15T03:58:45;96991.56;;;-0.55;68.85
56950;BME280;74437;50.080;19.924;2024-01-15T04:01:11;96984.97;;;-0.53;68.40
56950;BME280;74437;50.080;19.924;2024-01-15T04:03:36;96999.47;;;-0.49;67.77
56950;BME280;74437;50.080;19.924;2024-01-15T04:06:03;96958.94;;;-0.51;67.46
56950;BME280;74437;50.080;19.924;2024-01-15T04:08:28;96970.50;;;-0.45;67.90
56950;BME280;74437;50.080;19.924;2024-01-15T04:10:53;96980.13;;;-0.44;67.20
56950;BME280;74437;50.080;19.924;2024-01-15T04:13:20;96938.22;;;-0.49;67.04
56950;BME280;74437;50.080;19.924;2024-01-15T04:15:45;96954.78;;;-0.35;66.66
56950;BME280;74437;50.080;19.924;2024-01-15T04:18:10;96965.44;;;-0.35;66.89
56950;BME280;74437;50.080;19.924;2024-01-15T04:20:35;96947.97;;;-0.31;66.09
56950;BME280;74437;50.080;19.924;2024-01-15T04:23:01;96915.38;;;-0.68;66.57
56950;BME280;74437;50.080;19.924;2024-01-15T04:25:26;96956.41;;;-0.34;67.05
56950;BME280;74437;50.080;19.924;2024-01-15T04:27:51;96947.47;;;-0.39;66.50
56950;BME280;74437;50.080;19.924;2024-01-15T04:30:17;96960.13;;;-0.35;66.46
56950;BME280;74437;50.080;19.924;2024-01-15T04:32:42;96926.63;;;-0.54;66.86
56950;BME280;74437;50.080;19.924;2024-01-15T04:35:07;96941.94;;;-0.38;67.51
56950;BME280;74437;50.080;19.924;2024-01-15T04:37:32;96942.50;;;-0.36;66.54
56950;BME280;74437;50.080;19.924;2024-01-15T04:39:58;96944.94;;;-0.34;66.96
56950;BME280;74437;50.080;19.924;2024-01-15T04:42:23;96930.25;;;-0.37;67.42
56950;BME280;74437;50.080;19.924;2024-01-15T04:44:49;96934.88;;;-0.32;66.44
56950;BME280;74437;50.080;19.924;2024-01-15T04:47:14;96922.59;;;-0.45;66.81
56950;BME280;74437;50.080;19.924;2024-01-15T04:49:40;96863.41;;;-0.83;66.59
56950;BME280;74437;50.080;19.924;2024-01-15T04:52:05;96946.94;;;-0.29;66.13
56950;BME280;74437;50.080;19.924;2024-01-15T04:54:30;96868.50;;;-0.69;66.22
56950;BME280;74437;50.080;19.924;2024-01-15T04:56:55;96936.63;;;-0.26;66.43
56950;BME280;74437;50.080;19.924;2024-01-15T04:59:21;96924.34;;;-0.39;66.38
56950;BME280;74437;50.080;19.924;2024-01-15T05:01:46;96943.34;;;-0.23;66.79
56950;BME280;74437;50.080;19.924;2024-01-15T05:04:12;96947.84;;;-0.24;66.20
56950;BME280;74437;50.080;19.924;2024-01-15T05:06:37;96951.44;;;-0.18;66.30
56950;BME280;74437;50.080;19.924;2024-01-15T05:09:03;96950.41;;;-0.17;66.44
56950;BME280;74437;50.080;19.924;2024-01-15T05:11:29;96947.84;;;-0.12;65.89
56950;BME280;74437;50.080;19.924;2024-01-15T05:13:54;96956.88;;;-0.13;66.24
56950;BME280;74437;50.080;19.924;2024-01-15T05:16:19;96954.47;;;-0.14;66.20
56950;BME280;74437;50.080;19.924;2024-01-15T05:18:45;96943.81;;;-0.14;66.55
56950;BME280;74437;50.080;19.924;2024-01-15T05:21:10;96949.47;;;-0.11;66.01
56950;BME280;74437;50.080;19.924;2024-01-15T05:23:35;96873.72;;;-0.63;66.85
56950;BME280;74437;50.080;19.924;2024-01-15T05:26:01;96844.72;;;-0.95;66.39
56950;BME280;74437;50.080;19.924;2024-01-15T05:28:26;96955.13;;;-0.19;67.36
56950;BME280;74437;50.080;19.924;2024-01-15T05:30:51;96939.16;;;-0.19;66.68
56950;BME280;74437;50.080;19.924;2024-01-15T05:33:17;96944.97;;;-0.22;67.05
56950;BME280;74437;50.080;19.924;2024-01-15T05:35:43;96946.34;;;-0.20;66.34
56950;BME280;74437;50.080;19.924;2024-01-15T05:38:08;96940.69;;;-0.23;67.38
56950;BME280;74437;50.080;19.924;2024-01-15T05:40:33;96899.66;;;-0.46;67.11
56950;BME280;74437;50.080;19.924;2024-01-15T05:42:59;96852.50;;;-0.81;68.06
56950;BME280;74437;50.080;19.924;2024-01-15T05:45:26;96951.22;;;-0.28;68.10
56950;BME280;74437;50.080;19.924;2024-01-15T05:47:51;96950.06;;;-0.33;67.90
56950;BME280;74437;50.080;19.924;2024-01-15T05:50:17;96944.72;;;-0.33;67.88
56950;BME280;74437;50.080;19.924;2024-01-15T05:52:42;96934.28;;;-0.34;67.88
56950;BME280;74437;50.080;19.924;2024-01-15T05:55:07;96871.94;;;-0.81;68.55
56950;BME280;74437;50.080;19.924;2024-01-15T05:57:33;96930.13;;;-0.42;68.99
56950;BME280;74437;50.080;19.924;2024-01-15T05:59:58;96931.97;;;-0.42;69.31
56950;BME280;74437;50.080;19.924;2024-01-15T06:02:23;96931.50;;;-0.39;68.53
56950;BME280;74437;50.080;19.924;2024-01-15T06:04:48;96906.00;;;-0.59;68.14
56950;BME280;74437;50.080;19.924;2024-01-15T06:07:14;96920.63;;;-0.50;69.45
56950;BME280;74437;50.080;19.924;2024-01-15T06:09:39;96927.31;;;-0.47;68.75
56950;BME280;74437;50.080;19.924;2024-01-15T06:12:06;96935.78;;;-0.38;69.29
56950;BME280;74437;50.080;19.924;2024-01-15T06:14:32;96923.94;;;-0.54;68.84
56950;BME280;74437;50.080;19.924;2024-01-15T06:16:57;96921.53;;;-0.44;68.49
56950;BME280;74437;50.080;19.924;2024-01-15T06:19:22;96935.91;;;-0.33;69.55
56950;BME280;74437;50.080;19.924;2024-01-15T06:21:48;96915.41;;;-0.44;68.51
56950;BME280;74437;50.080;19.924;2024-01-15T06:24:13;96930.13;;;-0.30;69.25
56950;BME280;74437;50.080;19.924;2024-01-15T06:26:38;96927.13;;;-0.34;68.96
56950;BME280;74437;50.080;19.924;2024-01-15T06:29:04;96931.41;;;-0.33;69.08
56950;BME280;74437;50.080;19.924;2024-01-15T06:31:29;96928.16;;;-0.35;69.40
56950;BME280;74437;50.080;19.924;2024-01-15T06:33:55;96931.41;;;-0.33;70.03
56950;BME280;74437;50.080;19.924;2024-01-15T06:36:20;96917.97;;;-0.38;69.73
56950;BME280;74437;50.080;19.924;2024-01-15T06:38:46;96934.53;;;-0.48;69.51
56950;BME280;74437;50.080;19.924;2024-01-15T06:41:11;96942.06;;;-0.33;69.80
56950;BME280;74437;50.080;19.924;2024-01-15T06:43:36;96918.31;;;-0.46;69.63
56950;BME280;74437;50.080;19.924;2024-01-15T06:46:01;96937.31;;;-0.31;69.49
56950;BME280;74437;50.080;19.924;2024-01-15T06:48:27;96942.75;;;-0.25;69.38
56950;BME280;74437;50.080;19.924;2024-01-15T06:50:52;96952.47;;;-0.19;69.07
56950;BME280;74437;50.080;19.924;2024-01-15T06:53:17;96938.34;;;-0.20;68.16
56950;BME280;74437;50.080;19.924;2024-01-15T06:55:43;96777.03;;;-1.23;69.03
56950;BME280;74437;50.080;19.924;2024-01-15T06:58:08;96935.25;;;-0.17;68.63
56950;BME280;74437;50.080;19.924;2024-01-15T07:00:33;96932.00;;;-0.19;67.93
56950;BME280;74437;50.080;19.924;2024-01-15T07:02:59;96945.44;;;-0.13;68.08
56950;BME280;74437;50.080;19.924;2024-01-15T07:05:24;96924.34;;;-0.27;68.97
56950;BME280;74437;50.080;19.924;2024-01-15T07:07:49;96940.69;;;-0.23;68.13
56950;BME280;74437;50.080;19.924;2024-01-15T07:10:15;96929.53;;;-0.20;68.14
56950;BME280;74437;50.080;19.924;2024-01-15T07:12:43;96952.13;;;-0.11;68.53
56950;BME280;74437;50.080;19.924;2024-01-15T07:15:09;96960.59;;;-0.14;67.94
56950;BME280;74437;50.080;19.924;2024-01-15T07:17:35;96932.69;;;-0.23;68.48
56950;BME280;74437;50.080;19.924;2024-01-15T07:20:00;96962.78;;;-0.11;68.64
56950;BME280;74437;50.080;19.924;2024-01-15T07:22:26;96969.16;;;-0.12;70.14
56950;BME280;74437;50.080;19.924;2024-01-15T07:24:51;96927.34;;;-0.35;68.28
56950;BME280;74437;50.080;19.924;2024-01-15T07:27:17;96954.47;;;-0.14;67.74
56950;BME280;74437;50.080;19.924;2024-01-15T07:29:42;96962.13;;;-0.06;68.80
56950;BME280;74437;50.080;19.924;2024-01-15T07:32:08;96977.88;;;-0.05;67.73
56950;BME280;74437;50.080;19.924;2024-01-15T07:34:33;96984.81;;;-0.04;68.46
56950;BME280;74437;50.080;19.924;2024-01-15T07:36:58;96975.00;;;-0.03;68.12
56950;BME280;74437;50.080;19.924;2024-01-15T07:39:24;96983.78;;;-0.03;68.62
56950;BME280;74437;50.080;19.924;2024-01-15T07:41:53;96987.84;;;0.00;69.27
56950;BME280;74437;50.080;19.924;2024-01-15T07:44:18;96991.31;;;0.01;68.82
56950;BME280;74437;50.080;19.924;2024-01-15T07:46:44;96992.94;;;0.02;68.89
56950;BME280;74437;50.080;19.924;2024-01-15T07:49:10;96991.06;;;0.02;67.92
56950;BME280;74437;50.080;19.924;2024-01-15T07:51:35;96992.47;;;0.05;68.23
56950;BME280;74437;50.080;19.924;2024-01-15T07:54:01;96984.25;;;0.06;68.31
56950;BME280;74437;50.080;19.924;2024-01-15T07:56:27;96991.09;;;0.14;68.69
56950;BME280;74437;50.080;19.924;2024-01-15T07:58:52;96984.25;;;0.18;67.53
56950;BME280;74437;50.080;19.924;2024-01-15T08:01:17;96993.50;;;0.27;68.29
56950;BME280;74437;50.080;19.924;2024-01-15T08:03:43;96988.41;;;0.38;67.09
56950;BME280;74437;50.080;19.924;2024-01-15T08:06:08;96981.25;;;0.38;67.47
56950;BME280;74437;50.080;19.924;2024-01-15T08:08:35;96967.22;;;0.19;67.63
56950;BME280;74437;50.080;19.924;2024-01-15T08:11:00;97003.69;;;0.66;67.72
56950;BME280;74437;50.080;19.924;2024-01-15T08:13:26;96966.78;;;0.75;68.16
56950;BME280;74437;50.080;19.924;2024-01-15T08:15:52;96928.66;;;0.63;65.85
56950;BME280;74437;50.080;19.924;2024-01-15T08:18:17;97005.72;;;0.88;66.25
56950;BME280;74437;50.080;19.924;2024-01-15T08:20:42;97003.91;;;0.77;67.17
56950;BME280;74437;50.080;19.924;2024-01-15T08:23:08;97007.41;;;0.65;67.24
56950;BME280;74437;50.080;19.924;2024-01-15T08:25:33;96957.22;;;0.26;68.20
56950;BME280;74437;50.080;19.924;2024-01-15T08:27:59;97014.47;;;0.48;68.55
56950;BME280;74437;50.080;19.924;2024-01-15T08:30:24;96998.16;;;0.44;69.48
56950;BME280;74437;50.080;19.924;2024-01-15T08:32:55;96984.94;;;0.25;68.29
56950;BME280;74437;50.080;19.924;2024-01-15T08:35:21;97015.19;;;0.43;68.91
56950;BME280;74437;50.080;19.924;2024-01-15T08:37:50;97000.34;;;0.47;68.50
56950;BME280;74437;50.080;19.924;2024-01-15T08:40:16;97002.78;;;0.61;68.65
56950;BME280;74437;50.080;19.924;2024-01-15T08:42:42;96975.13;;;0.67;67.18
56950;BME280;74437;50.080;19.924;2024-01-15T08:45:09;97011.84;;;1.00;67.08
56950;BME280;74437;50.080;19.924;2024-01-15T08:47:34;96949.50;;;0.66;66.91
56950;BME280;74437;50.080;19.924;2024-01-15T08:49:59;96997.34;;;0.96;65.98
56950;BME280;74437;50.080;19.924;2024-01-15T08:52:25;96995.31;;;1.15;64.93
56950;BME280;74437;50.080;19.924;2024-01-15T08:54:50;96992.53;;;1.22;63.78
56950;BME280;74437;50.080;19.924;2024-01-15T08:57:15;96985.88;;;0.96;65.13
56950;BME280;74437;50.080;19.924;2024-01-15T08:59:41;96961.94;;;0.60;66.33
56950;BME280;74437;50.080;19.924;2024-01-15T09:02:07;96995.81;;;0.59;65.70
56950;BME280;74437;50.080;19.924;2024-01-15T09:04:32;96986.78;;;0.61;66.08
56950;BME280;74437;50.080;19.924;2024-01-15T09:06:58;96973.09;;;0.57;66.20
56950;BME280;74437;50.080;19.924;2024-01-15T09:09:23;97005.44;;;0.61;64.97
56950;BME280;74437;50.080;19.924;2024-01-15T09:11:49;96981.22;;;0.50;65.62
56950;BME280;74437;50.080;19.924;2024-01-15T09:14:15;96913.69;;;-0.03;65.53
56950;BME280;74437;50.080;19.924;2024-01-15T09:16:40;97048.91;;;0.61;65.55
56950;BME280;74437;50.080;19.924;2024-01-15T09:19:05;97037.66;;;0.59;65.08
56950;BME280;74437;50.080;19.924;2024-01-15T09:21:31;97049.25;;;0.65;65.36
56950;BME280;74437;50.080;19.924;2024-01-15T09:23:56;97036.88;;;0.58;66.15
56950;BME280;74437;50.080;19.924;2024-01-15T09:26:21;97006.16;;;0.32;65.96
56950;BME280;74437;50.080;19.924;2024-01-15T09:28:47;97034.44;;;0.57;65.56
56950;BME280;74437;50.080;19.924;2024-01-15T09:31:12;97018.66;;;0.32;65.96
56950;BME280;74437;50.080;19.924;2024-01-15T09:33:37;97050.31;;;0.40;66.27
56950;BME280;74437;50.080;19.924;2024-01-15T09:36:03;96976.81;;;-0.27;67.85
56950;BME280;74437;50.080;19.924;2024-01-15T09:38:29;97050.19;;;0.11;70.94
56950;BME280;74437;50.080;19.924;2024-01-15T09:40:56;96965.28;;;-0.64;72.38
56950;BME280;74437;50.080;19.924;2024-01-15T09:43:22;97017.03;;;0.19;72.22
56950;BME280;74437;50.080;19.924;2024-01-15T09:45:49;97032.94;;;0.49;70.92
56950;BME280;74437;50.080;19.924;2024-01-15T09:48:14;96997.56;;;0.54;70.79
56950;BME280;74437;50.080;19.924;2024-01-15T09:50:40;97041.25;;;0.77;69.04
56950;BME280;74437;50.080;19.924;2024-01-15T09:53:05;97023.06;;;0.73;69.41
56950;BME280;74437;50.080;19.924;2024-01-15T09:55:31;97028.16;;;0.63;69.09
56950;BME280;74437;50.080;19.924;2024-01-15T09:58:00;97023.28;;;0.60;67.29
56950;BME280;74437;50.080;19.924;2024-01-15T10:00:27;97033.50;;;0.51;67.02
56950;BME280;74437;50.080;19.924;2024-01-15T10:02:53;97042.22;;;0.58;67.93
56950;BME280;74437;50.080;19.924;2024-01-15T10:05:18;97034.13;;;0.94;67.76
56950;BME280;74437;50.080;19.924;2024-01-15T10:07:45;97015.03;;;0.85;68.84
56950;BME280;74437;50.080;19.924;2024-01-15T10:10:12;97024.00;;;0.55;69.27
56950;BME280;74437;50.080;19.924;2024-01-15T10:12:39;97032.94;;;0.37;69.88
56950;BME280;74437;50.080;19.924;2024-01-15T10:15:04;97053.91;;;0.22;71.12
56950;BME280;74437;50.080;19.924;2024-01-15T10:17:30;97046.28;;;0.37;71.30
56950;BME280;74437;50.080;19.924;2024-01-15T10:19:56;96947.41;;;-0.09;71.69
56950;BME280;74437;50.080;19.924;2024-01-15T10:22:22;97034.88;;;0.06;71.88
56950;BME280;74437;50.080;19.924;2024-01-15T10:24:48;96962.78;;;-0.35;72.16
56950;BME280;74437;50.080;19.924;2024-01-15T10:27:13;97029.19;;;0.03;71.50
56950;BME280;74437;50.080;19.924;2024-01-15T10:29:41;97024.66;;;0.03;70.90
56950;BME280;74437;50.080;19.924;2024-01-15T10:32:07;96985.84;;;-0.28;70.62
56950;BME280;74437;50.080;19.924;2024-01-15T10:34:37;96935.41;;;-0.66;70.35
56950;BME280;74437;50.080;19.924;2024-01-15T10:37:03;96996.50;;;-0.17;69.07
56950;BME280;74437;50.080;19.924;2024-01-15T10:39:29;97010.41;;;-0.03;68.02
56950;BME280;74437;50.080;19.924;2024-01-15T10:41:55;97016.91;;;0.02;68.60
56950;BME280;74437;50.080;19.924;2024-01-15T10:44:20;96998.97;;;-0.03;67.82
56950;BME280;74437;50.080;19.924;2024-01-15T10:46:46;96997.69;;;-0.12;67.12
56950;BME280;74437;50.080;19.924;2024-01-15T10:49:12;97015.28;;;0.01;67.26
56950;BME280;74437;50.080;19.924;2024-01-15T10:51:38;96993.53;;;0.04;67.43
56950;BME280;74437;50.080;19.924;2024-01-15T10:54:04;97026.78;;;0.25;65.46
56950;BME280;74437;50.080;19.924;2024-01-15T10:56:31;97015.06;;;0.38;65.50
56950;BME280;74437;50.080;19.924;2024-01-15T10:58:59;97010.19;;;0.35;65.14
56950;BME280;74437;50.080;19.924;2024-01-15T11:01:24;96971.88;;;0.00;65.48
56950;BME280;74437;50.080;19.924;2024-01-15T11:03:50;97016.38;;;0.35;65.13
56950;BME280;74437;50.080;19.924;2024-01-15T11:06:19;97009.75;;;0.38;64.49
56950;BME280;74437;50.080;19.924;2024-01-15T11:08:51;96994.22;;;0.23;64.42
56950;BME280;74437;50.080;19.924;2024-01-15T11:11:17;97008.69;;;0.39;64.14
56950;BME280;74437;50.080;19.924;2024-01-15T11:13:43;97010.19;;;0.47;64.83
56950;BME280;74437;50.080;19.924;2024-01-15T11:16:14;96987.53;;;0.73;63.30
56950;BME280;74437;50.080;19.924;2024-01-15T11:19:01;97011.22;;;1.10;62.81
56950;BME280;74437;50.080;19.924;2024-01-15T11:21:26;97006.81;;;1.45;62.03
56950;BME280;74437;50.080;19.924;2024-01-15T11:23:56;97010.25;;;1.57;61.33
56950;BME280;74437;50.080;19.924;2024-01-15T11:29:01;97005.66;;;1.41;62.28
56950;BME280;74437;50.080;19.924;2024-01-15T11:34:06;96997.34;;;1.37;60.95
56950;BME280;74437;50.080;19.924;2024-01-15T11:41:54;96994.63;;;1.20;61.54
56950;BME280;74437;50.080;19.924;2024-01-15T11:44:20;96990.69;;;1.11;62.09
56950;BME280;74437;50.080;19.924;2024-01-15T11:46:58;97000.06;;;1.13;62.29
56950;BME280;74437;50.080;19.924;2024-01-15T11:52:02;96943.41;;;0.41;62.32
56950;BME280;74437;50.080;19.924;2024-01-15T11:54:32;96983.16;;;0.55;62.36
56950;BME280;74437;50.080;19.924;2024-01-15T11:57:00;96981.44;;;0.37;63.58
56950;BME280;74437;50.080;19.924;2024-01-15T11:59:29;97008.81;;;0.44;63.13
56950;BME280;74437;50.080;19.924;2024-01-15T12:01:54;96989.00;;;0.28;63.78
56950;BME280;74437;50.080;19.924;2024-01-15T12:04:20;97002.22;;;0.35;63.03
56950;BME280;74437;50.080;19.924;2024-01-15T12:06:46;97004.53;;;0.43;63.10
56950;BME280;74437;50.080;19.924;2024-01-15T12:09:11;97000.69;;;0.39;63.14
56950;BME280;74437;50.080;19.924;2024-01-15T12:11:38;97005.44;;;0.49;63.58
56950;BME280;74437;50.080;19.924;2024-01-15T12:14:07;97008.22;;;0.54;63.57
56950;BME280;74437;50.080;19.924;2024-01-15T12:16:33;96964.53;;;0.31;62.55
56950;BME280;74437;50.080;19.924;2024-01-15T12:18:59;97004.63;;;0.60;62.72
56950;BME280;74437;50.080;19.924;2024-01-15T12:21:26;96909.75;;;-0.01;62.55
56950;BME280;74437;50.080;19.924;2024-01-15T12:23:51;96941.03;;;0.16;62.64
56950;BME280;74437;50.080;19.924;2024-01-15T12:26:18;97001.25;;;0.53;62.56
56950;BME280;74437;50.080;19.924;2024-01-15T12:28:43;96962.34;;;0.16;62.71
56950;BME280;74437;50.080;19.924;2024-01-15T12:31:08;97006.16;;;0.44;63.08
56950;BME280;74437;50.080;19.924;2024-01-15T12:33:33;96976.03;;;0.20;62.93
56950;BME280;74437;50.080;19.924;2024-01-15T12:35:59;96990.63;;;0.41;63.37
56950;BME280;74437;50.080;19.924;2024-01-15T12:38:24;97002.56;;;0.38;62.80
56950;BME280;74437;50.080;19.924;2024-01-15T12:40:50;96939.41;;;0.03;63.37
56950;BME280;74437;50.080;19.924;2024-01-15T12:43:17;97004.41;;;0.38;62.59
56950;BME280;74437;50.080;19.924;2024-01-15T12:45:42;97002.78;;;0.37;63.04
56950;BME280;74437;50.080;19.924;2024-01-15T12:48:08;97012.53;;;0.43;62.71
56950;BME280;74437;50.080;19.924;2024-01-15T12:50:34;96960.03;;;0.20;62.74
56950;BME280;74437;50.080;19.924;2024-01-15T12:53:01;97006.47;;;0.48;62.35
56950;BME280;74437;50.080;19.924;2024-01-15T12:55:26;96999.41;;;0.53;62.44
56950;BME280;74437;50.080;19.924;2024-01-15T12:57:51;96999.19;;;0.55;63.00